sensor_id;sensor_type;location;lat;lon;timestamp;pressure;altitude;pressure_sealevel;temperature;humidity
64841;BME280;51307;52.162;7.560;2023-06-22T00:01:54;101396.88;;;22.54;50.78
64841;BME280;51307;52.162;7.560;2023-06-22T00:04:19;101402.25;;;22.60;50.31
64841;BME280;51307;52.162;7.560;2023-06-22T00:06:44;101390.81;;;22.70;50.37
64841;BME280;51307;52.162;7.560;2023-06-22T00:09:10;101396.72;;;22.48;50.79
64841;BME280;51307;52.162;7.560;2023-06-22T00:11:38;101390.91;;;22.63;50.55
64841;BME280;51307;52.162;7.560;2023-06-22T00:14:04;101393.91;;;22.55;50.46
64841;BME280;51307;52.162;7.560;2023-06-22T00:16:32;101392.00;;;22.37;50.87
64841;BME280;51307;52.162;7.560;2023-06-22T00:18:58;101390.81;;;22.70;50.15
64841;BME280;51307;52.162;7.560;2023-06-22T00:21:29;101379.00;;;22.58;49.97
64841;BME280;51307;52.162;7.560;2023-06-22T00:23:55;101376.88;;;22.41;50.71
64841;BME280;51307;52.162;7.560;2023-06-22T00:26:21;101377.72;;;22.60;50.01
64841;BME280;51307;52.162;7.560;2023-06-22T00:28:47;101370.97;;;22.44;50.29
64841;BME280;51307;52.162;7.560;2023-06-22T00:31:13;101375.38;;;22.64;49.65
64841;BME280;51307;52.162;7.560;2023-06-22T00:33:39;101373.19;;;22.29;50.49
64841;BME280;51307;52.162;7.560;2023-06-22T00:36:05;101369.28;;;22.43;50.20
64841;BME280;51307;52.162;7.560;2023-06-22T00:38:31;101361.91;;;22.25;50.55
64841;BME280;51307;52.162;7.560;2023-06-22T00:40:57;101361.59;;;22.59;49.57
64841;BME280;51307;52.162;7.560;2023-06-22T00:43:22;101357.97;;;22.46;49.52
64841;BME280;51307;52.162;7.560;2023-06-22T00:45:48;101359.41;;;22.24;50.24
64841;BME280;51307;52.162;7.560;2023-06-22T00:48:14;101359.47;;;22.42;49.49
64841;BME280;51307;52.162;7.560;2023-06-22T00:50:40;101351.81;;;22.26;49.74
64841;BME280;51307;52.162;7.560;2023-06-22T00:53:07;101346.38;;;22.26;49.92
64841;BME280;51307;52.162;7.560;2023-06-22T00:55:40;101357.44;;;22.31;49.85
64841;BME280;51307;52.162;7.560;2023-06-22T00:58:09;101354.94;;;22.29;49.75
64841;BME280;51307;52.162;7.560;2023-06-22T01:00:37;101359.72;;;22.34;49.19
64841;BME280;51307;52.162;7.560;2023-06-22T01:03:03;101362.88;;;22.56;48.84
64841;BME280;51307;52.162;7.560;2023-06-22T01:05:31;101357.56;;;22.18;49.78
64841;BME280;51307;52.162;7.560;2023-06-22T01:10:48;101354.50;;;21.89;50.52
64841;BME280;51307;52.162;7.560;2023-06-22T01:13:27;101352.41;;;22.09;49.89
64841;BME280;51307;52.162;7.560;2023-06-22T01:16:18;101359.41;;;22.24;49.55
64841;BME280;51307;52.162;7.560;2023-06-22T01:18:48;101353.47;;;22.08;49.99
64841;BME280;51307;52.162;7.560;2023-06-22T01:21:19;101352.31;;;21.97;49.76
64841;BME280;51307;52.162;7.560;2023-06-22T01:26:25;101359.88;;;21.95;50.03
64841;BME280;51307;52.162;7.560;2023-06-22T01:28:55;101361.22;;;21.86;50.43
64841;BME280;51307;52.162;7.560;2023-06-22T01:31:27;101355.94;;;21.91;50.10
64841;BME280;51307;52.162;7.560;2023-06-22T01:34:03;101347.69;;;21.73;50.48
64841;BME280;51307;52.162;7.560;2023-06-22T01:36:30;101357.69;;;21.79;50.32
64841;BME280;51307;52.162;7.560;2023-06-22T01:38:58;101350.19;;;21.74;50.41
64841;BME280;51307;52.162;7.560;2023-06-22T01:41:29;101350.66;;;21.71;50.52
64841;BME280;51307;52.162;7.560;2023-06-22T01:43:56;101352.38;;;21.59;50.78
64841;BME280;51307;52.162;7.560;2023-06-22T01:46:23;101347.81;;;21.53;50.87
64841;BME280;51307;52.162;7.560;2023-06-22T01:48:50;101351.03;;;21.75;50.29
64841;BME280;51307;52.162;7.560;2023-06-22T01:51:16;101342.06;;;21.68;50.66
64841;BME280;51307;52.162;7.560;2023-06-22T01:53:41;101344.03;;;21.54;50.79
64841;BME280;51307;52.162;7.560;2023-06-22T01:56:08;101344.94;;;21.41;51.49
64841;BME280;51307;52.162;7.560;2023-06-22T01:58:38;101341.50;;;21.59;50.76
64841;BME280;51307;52.162;7.560;2023-06-22T02:01:12;101350.53;;;21.53;51.05
64841;BME280;51307;52.162;7.560;2023-06-22T02:03:50;101348.34;;;21.36;51.29
64841;BME280;51307;52.162;7.560;2023-06-22T02:06:29;101352.53;;;21.39;50.88
64841;BME280;51307;52.162;7.560;2023-06-22T02:09:02;101351.47;;;21.33;51.30
64841;BME280;51307;52.162;7.560;2023-06-22T02:11:31;101351.75;;;21.63;50.37
64841;BME280;51307;52.162;7.560;2023-06-22T02:13:58;101344.47;;;21.51;51.01
64841;BME280;51307;52.162;7.560;2023-06-22T02:16:23;101347.94;;;21.32;51.17
64841;BME280;51307;52.162;7.560;2023-06-22T02:18:51;101349.66;;;21.27;51.43
64841;BME280;51307;52.162;7.560;2023-06-22T02:21:17;101338.13;;;21.25;51.53
64841;BME280;51307;52.162;7.560;2023-06-22T02:23:43;101339.41;;;21.22;51.47
64841;BME280;51307;52.162;7.560;2023-06-22T02:26:09;101345.78;;;21.41;51.43
64841;BME280;51307;52.162;7.560;2023-06-22T02:28:35;101345.16;;;21.07;52.08
64841;BME280;51307;52.162;7.560;2023-06-22T02:31:00;101342.34;;;21.21;51.47
64841;BME280;51307;52.162;7.560;2023-06-22T02:33:26;101349.50;;;21.15;51.92
64841;BME280;51307;52.162;7.560;2023-06-22T02:35:52;101344.09;;;21.08;51.90
64841;BME280;51307;52.162;7.560;2023-06-22T02:38:18;101341.75;;;21.19;51.53
64841;BME280;51307;52.162;7.560;2023-06-22T02:40:44;101346.19;;;21.06;51.96
64841;BME280;51307;52.162;7.560;2023-06-22T02:43:10;101349.19;;;20.91;52.54
64841;BME280;51307;52.162;7.560;2023-06-22T02:45:35;101342.81;;;21.18;51.57
64841;BME280;51307;52.162;7.560;2023-06-22T02:48:01;101348.56;;;20.96;52.29
64841;BME280;51307;52.162;7.560;2023-06-22T02:50:26;101347.06;;;21.00;52.01
64841;BME280;51307;52.162;7.560;2023-06-22T02:52:52;101344.34;;;21.00;51.96
64841;BME280;51307;52.162;7.560;2023-06-22T02:55:17;101348.56;;;20.96;52.20
64841;BME280;51307;52.162;7.560;2023-06-22T02:57:43;101350.69;;;20.87;52.53
64841;BME280;51307;52.162;7.560;2023-06-22T03:00:11;101346.28;;;20.93;52.28
64841;BME280;51307;52.162;7.560;2023-06-22T03:02:47;101348.53;;;21.03;52.23
64841;BME280;51307;52.162;7.560;2023-06-22T03:05:14;101346.88;;;20.95;52.08
64841;BME280;51307;52.162;7.560;2023-06-22T03:07:46;101343.97;;;20.90;52.11
64841;BME280;51307;52.162;7.560;2023-06-22T03:10:13;101348.38;;;20.91;52.59
64841;BME280;51307;52.162;7.560;2023-06-22T03:12:40;101337.06;;;20.94;52.63
64841;BME280;51307;52.162;7.560;2023-06-22T03:15:10;101342.75;;;20.86;52.78
64841;BME280;51307;52.162;7.560;2023-06-22T03:17:38;101349.06;;;20.73;53.10
64841;BME280;51307;52.162;7.560;2023-06-22T03:20:07;101349.41;;;20.90;52.61
64841;BME280;51307;52.162;7.560;2023-06-22T03:22:41;101342.75;;;20.86;52.58
64841;BME280;51307;52.162;7.560;2023-06-22T03:25:08;101348.38;;;20.77;52.39
64841;BME280;51307;52.162;7.560;2023-06-22T03:27:42;101343.16;;;20.82;52.32
64841;BME280;51307;52.162;7.560;2023-06-22T03:30:10;101346.94;;;20.75;52.65
64841;BME280;51307;52.162;7.560;2023-06-22T03:32:35;101332.50;;;20.74;52.69
64841;BME280;51307;52.162;7.560;2023-06-22T03:35:01;101334.78;;;20.91;52.47
64841;BME280;51307;52.162;7.560;2023-06-22T03:37:27;101335.63;;;20.78;52.43
64841;BME280;51307;52.162;7.560;2023-06-22T03:39:53;101333.53;;;20.80;52.41
64841;BME280;51307;52.162;7.560;2023-06-22T03:42:19;101341.09;;;20.71;52.72
64841;BME280;51307;52.162;7.560;2023-06-22T03:44:44;101339.41;;;20.77;52.67
64841;BME280;51307;52.162;7.560;2023-06-22T03:47:10;101337.72;;;20.76;52.88
64841;BME280;51307;52.162;7.560;2023-06-22T03:49:36;101337.31;;;20.72;53.00
64841;BME280;51307;52.162;7.560;2023-06-22T03:52:01;101333.50;;;20.93;52.08
64841;BME280;51307;52.162;7.560;2023-06-22T03:54:30;101333.09;;;20.83;52.35
64841;BME280;51307;52.162;7.560;2023-06-22T03:56:57;101331.44;;;20.75;52.41
64841;BME280;51307;52.162;7.560;2023-06-22T03:59:24;101321.41;;;20.89;52.14
64841;BME280;51307;52.162;7.560;2023-06-22T04:01:49;101328.16;;;20.67;52.94
64841;BME280;51307;52.162;7.560;2023-06-22T04:04:17;101330.44;;;20.70;52.60
64841;BME280;51307;52.162;7.560;2023-06-22T04:06:43;101331.91;;;20.65;52.68
64841;BME280;51307;52.162;7.560;2023-06-22T04:09:08;101330.44;;;20.63;52.81
64841;BME280;51307;52.162;7.560;2023-06-22T04:11:34;101322.50;;;20.61;52.89
64841;BME280;51307;52.162;7.560;2023-06-22T04:13:59;101323.91;;;20.77;52.44
64841;BME280;51307;52.162;7.560;2023-06-22T04:16:25;101321.69;;;20.61;52.86
64841;BME280;51307;52.162;7.560;2023-06-22T04:18:51;101316.84;;;20.70;53.13
64841;BME280;51307;52.162;7.560;2023-06-22T04:21:16;101317.22;;;20.80;52.71
64841;BME280;51307;52.162;7.560;2023-06-22T04:23:41;101322.22;;;20.90;52.05
64841;BME280;51307;52.162;7.560;2023-06-22T04:26:08;101323.13;;;20.70;52.39
64841;BME280;51307;52.162;7.560;2023-06-22T04:28:33;101331.41;;;20.89;51.92
64841;BME280;51307;52.162;7.560;2023-06-22T04:31:03;101325.41;;;20.73;51.97
64841;BME280;51307;52.162;7.560;2023-06-22T04:33:29;101324.16;;;20.69;52.05
64841;BME280;51307;52.162;7.560;2023-06-22T04:35:55;101327.66;;;20.90;52.03
64841;BME280;51307;52.162;7.560;2023-06-22T04:38:24;101317.44;;;20.78;52.29
64841;BME280;51307;52.162;7.560;2023-06-22T04:40:50;101315.22;;;21.07;51.71
64841;BME280;51307;52.162;7.560;2023-06-22T04:43:16;101316.78;;;20.90;51.77
64841;BME280;51307;52.162;7.560;2023-06-22T04:45:42;101308.72;;;21.08;51.02
64841;BME280;51307;52.162;7.560;2023-06-22T04:48:08;101322.22;;;20.90;51.88
64841;BME280;51307;52.162;7.560;2023-06-22T04:50:36;101310.84;;;20.99;51.74
64841;BME280;51307;52.162;7.560;2023-06-22T04:53:02;101306.91;;;20.95;51.67
64841;BME280;51307;52.162;7.560;2023-06-22T04:55:31;101309.97;;;21.12;51.52
64841;BME280;51307;52.162;7.560;2023-06-22T04:57:57;101307.06;;;21.07;51.16
64841;BME280;51307;52.162;7.560;2023-06-22T05:00:30;101305.13;;;21.21;51.18
64841;BME280;51307;52.162;7.560;2023-06-22T05:02:56;101305.66;;;21.30;50.89
64841;BME280;51307;52.162;7.560;2023-06-22T05:05:24;101303.91;;;21.42;50.50
64841;BME280;51307;52.162;7.560;2023-06-22T05:07:50;101302.44;;;21.72;49.67
64841;BME280;51307;52.162;7.560;2023-06-22T05:10:25;101305.41;;;21.70;49.64
64841;BME280;51307;52.162;7.560;2023-06-22T05:12:51;101303.31;;;21.65;49.65
64841;BME280;51307;52.162;7.560;2023-06-22T05:15:16;101301.72;;;21.83;49.40
64841;BME280;51307;52.162;7.560;2023-06-22T05:17:45;101302.72;;;21.89;48.89
64841;BME280;51307;52.162;7.560;2023-06-22T05:20:12;101298.16;;;21.82;49.23
64841;BME280;51307;52.162;7.560;2023-06-22T05:22:39;101305.75;;;21.80;49.51
64841;BME280;51307;52.162;7.560;2023-06-22T05:25:09;101299.94;;;21.95;49.16
64841;BME280;51307;52.162;7.560;2023-06-22T05:27:34;101299.91;;;21.77;49.43
64841;BME280;51307;52.162;7.560;2023-06-22T05:30:06;101302.59;;;22.02;49.34
64841;BME280;51307;52.162;7.560;2023-06-22T05:32:32;101303.72;;;21.94;49.42
64841;BME280;51307;52.162;7.560;2023-06-22T05:34:58;101303.50;;;21.96;49.43
64841;BME280;51307;52.162;7.560;2023-06-22T05:37:23;101298.03;;;21.96;49.90
64841;BME280;51307;52.162;7.560;2023-06-22T05:39:48;101298.50;;;21.93;49.90
64841;BME280;51307;52.162;7.560;2023-06-22T05:42:14;101294.06;;;22.17;49.50
64841;BME280;51307;52.162;7.560;2023-06-22T05:44:39;101302.34;;;21.85;49.97
64841;BME280;51307;52.162;7.560;2023-06-22T05:47:06;101304.41;;;22.08;49.53
64841;BME280;51307;52.162;7.560;2023-06-22T05:49:31;101312.22;;;22.05;49.77
64841;BME280;51307;52.162;7.560;2023-06-22T05:51:59;101308.06;;;22.02;49.94
64841;BME280;51307;52.162;7.560;2023-06-22T05:54:25;101304.56;;;22.13;50.16
64841;BME280;51307;52.162;7.560;2023-06-22T05:56:51;101306.19;;;22.21;49.27
64841;BME280;51307;52.162;7.560;2023-06-22T05:59:17;101306.38;;;22.01;50.13
64841;BME280;51307;52.162;7.560;2023-06-22T06:01:42;101298.25;;;22.20;49.68
64841;BME280;51307;52.162;7.560;2023-06-22T06:04:08;101303.28;;;22.16;50.45
64841;BME280;51307;52.162;7.560;2023-06-22T06:06:34;101308.38;;;22.31;49.82
64841;BME280;51307;52.162;7.560;2023-06-22T06:09:00;101300.53;;;22.41;49.05
64841;BME280;51307;52.162;7.560;2023-06-22T06:11:26;101301.53;;;22.47;48.26
64841;BME280;51307;52.162;7.560;2023-06-22T06:13:51;101309.31;;;22.25;49.64
64841;BME280;51307;52.162;7.560;2023-06-22T06:16:17;101310.09;;;22.51;48.61
64841;BME280;51307;52.162;7.560;2023-06-22T06:18:42;101305.53;;;22.44;49.02
64841;BME280;51307;52.162;7.560;2023-06-22T06:21:08;101304.09;;;22.60;48.61
64841;BME280;51307;52.162;7.560;2023-06-22T06:23:33;101305.28;;;22.64;49.04
64841;BME280;51307;52.162;7.560;2023-06-22T06:25:59;101315.47;;;22.57;48.87
64841;BME280;51307;52.162;7.560;2023-06-22T06:28:25;101314.75;;;22.80;48.14
64841;BME280;51307;52.162;7.560;2023-06-22T06:30:51;101314.53;;;22.63;48.80
64841;BME280;51307;52.162;7.560;2023-06-22T06:33:17;101316.03;;;22.78;48.38
64841;BME280;51307;52.162;7.560;2023-06-22T06:35:42;101310.84;;;22.58;48.54
64841;BME280;51307;52.162;7.560;2023-06-22T06:38:08;101309.94;;;22.64;49.13
64841;BME280;51307;52.162;7.560;2023-06-22T06:40:33;101314.75;;;22.80;48.70
64841;BME280;51307;52.162;7.560;2023-06-22T06:42:59;101308.34;;;22.87;48.92
64841;BME280;51307;52.162;7.560;2023-06-22T06:45:25;101315.41;;;22.94;48.63
64841;BME280;51307;52.162;7.560;2023-06-22T06:47:54;101303.69;;;22.75;48.61
64841;BME280;51307;52.162;7.560;2023-06-22T06:50:19;101302.88;;;23.05;48.82
64841;BME280;51307;52.162;7.560;2023-06-22T06:52:47;101299.69;;;22.78;48.35
64841;BME280;51307;52.162;7.560;2023-06-22T06:55:15;101295.16;;;23.02;48.21
64841;BME280;51307;52.162;7.560;2023-06-22T06:57:41;101305.25;;;23.02;48.14
64841;BME280;51307;52.162;7.560;2023-06-22T07:00:10;101306.63;;;22.92;48.35
64841;BME280;51307;52.162;7.560;2023-06-22T07:02:41;101303.44;;;22.95;48.82
64841;BME280;51307;52.162;7.560;2023-06-22T07:05:08;101300.28;;;23.10;48.44
64841;BME280;51307;52.162;7.560;2023-06-22T07:07:34;101313.63;;;23.00;48.11
64841;BME280;51307;52.162;7.560;2023-06-22T07:10:00;101314.41;;;23.07;48.00
64841;BME280;51307;52.162;7.560;2023-06-22T07:12:26;101314.69;;;23.18;47.99
64841;BME280;51307;52.162;7.560;2023-06-22T07:14:52;101309.97;;;23.25;47.97
64841;BME280;51307;52.162;7.560;2023-06-22T07:17:18;101306.06;;;23.21;47.90
64841;BME280;51307;52.162;7.560;2023-06-22T07:19:43;101302.38;;;23.27;48.29
64841;BME280;51307;52.162;7.560;2023-06-22T07:22:09;101293.72;;;23.30;47.89
64841;BME280;51307;52.162;7.560;2023-06-22T07:24:34;101286.84;;;23.27;48.05
64841;BME280;51307;52.162;7.560;2023-06-22T07:27:00;101288.88;;;23.44;48.05
64841;BME280;51307;52.162;7.560;2023-06-22T07:29:27;101288.19;;;23.37;48.40
64841;BME280;51307;52.162;7.560;2023-06-22T07:31:53;101278.03;;;23.25;49.09
64841;BME280;51307;52.162;7.560;2023-06-22T07:34:19;101285.06;;;23.33;50.11
64841;BME280;51307;52.162;7.560;2023-06-22T07:36:45;101277.97;;;23.44;47.92
64841;BME280;51307;52.162;7.560;2023-06-22T07:39:11;101284.72;;;23.41;48.41
64841;BME280;51307;52.162;7.560;2023-06-22T07:41:39;101280.59;;;23.51;48.00
64841;BME280;51307;52.162;7.560;2023-06-22T07:44:05;101278.91;;;23.49;48.17
64841;BME280;51307;52.162;7.560;2023-06-22T07:46:32;101278.91;;;23.49;48.18
64841;BME280;51307;52.162;7.560;2023-06-22T07:48:57;101281.28;;;23.46;47.92
64841;BME280;51307;52.162;7.560;2023-06-22T07:51:23;101284.38;;;23.49;49.02
64841;BME280;51307;52.162;7.560;2023-06-22T07:53:51;101277.72;;;23.45;48.55
64841;BME280;51307;52.162;7.560;2023-06-22T07:56:17;101276.31;;;23.55;48.35
64841;BME280;51307;52.162;7.560;2023-06-22T07:58:46;101278.31;;;23.59;47.92
64841;BME280;51307;52.162;7.560;2023-06-22T08:01:15;101284.28;;;23.56;47.75
64841;BME280;51307;52.162;7.560;2023-06-22T08:03:41;101281.78;;;23.55;47.57
64841;BME280;51307;52.162;7.560;2023-06-22T08:06:07;101286.75;;;23.58;47.62
64841;BME280;51307;52.162;7.560;2023-06-22T08:08:36;101279.88;;;23.43;48.10
64841;BME280;51307;52.162;7.560;2023-06-22T08:11:01;101278.31;;;23.59;48.25
64841;BME280;51307;52.162;7.560;2023-06-22T08:13:27;101277.03;;;23.62;47.93
64841;BME280;51307;52.162;7.560;2023-06-22T08:15:52;101277.50;;;23.59;48.04
64841;BME280;51307;52.162;7.560;2023-06-22T08:18:18;101276.91;;;23.69;47.96
64841;BME280;51307;52.162;7.560;2023-06-22T08:20:43;101281.69;;;23.73;47.37
64841;BME280;51307;52.162;7.560;2023-06-22T08:23:09;101273.13;;;23.70;48.05
64841;BME280;51307;52.162;7.560;2023-06-22T08:25:35;101274.53;;;23.72;48.23
64841;BME280;51307;52.162;7.560;2023-06-22T08:28:01;101273.81;;;23.77;47.96
64841;BME280;51307;52.162;7.560;2023-06-22T08:30:27;101268.47;;;23.70;48.15
64841;BME280;51307;52.162;7.560;2023-06-22T08:32:53;101271.44;;;23.69;48.92
64841;BME280;51307;52.162;7.560;2023-06-22T08:35:21;101270.28;;;23.76;48.89
64841;BME280;51307;52.162;7.560;2023-06-22T08:37:47;101259.59;;;23.75;48.21
64841;BME280;51307;52.162;7.560;2023-06-22T08:40:17;101261.59;;;23.79;48.99
64841;BME280;51307;52.162;7.560;2023-06-22T08:42:42;101251.16;;;23.76;47.61
64841;BME280;51307;52.162;7.560;2023-06-22T08:45:08;101262.56;;;23.73;47.86
64841;BME280;51307;52.162;7.560;2023-06-22T08:47:34;101251.97;;;23.77;48.32
64841;BME280;51307;52.162;7.560;2023-06-22T08:50:00;101258.88;;;23.79;48.07
64841;BME280;51307;52.162;7.560;2023-06-22T08:52:28;101251.88;;;23.83;48.50
64841;BME280;51307;52.162;7.560;2023-06-22T08:54:53;101242.22;;;23.81;47.82
64841;BME280;51307;52.162;7.560;2023-06-22T08:57:21;101240.50;;;23.87;47.85
64841;BME280;51307;52.162;7.560;2023-06-22T08:59:47;101237.53;;;23.88;47.75
64841;BME280;51307;52.162;7.560;2023-06-22T09:02:12;101233.00;;;23.94;47.29
64841;BME280;51307;52.162;7.560;2023-06-22T09:04:38;101228.47;;;23.88;47.67
64841;BME280;51307;52.162;7.560;2023-06-22T09:07:07;101213.03;;;23.81;47.67
64841;BME280;51307;52.162;7.560;2023-06-22T09:09:32;101216.84;;;23.92;47.56
64841;BME280;51307;52.162;7.560;2023-06-22T09:11:58;101211.75;;;23.96;47.47
64841;BME280;51307;52.162;7.560;2023-06-22T09:14:24;101204.97;;;23.98;47.31
64841;BME280;51307;52.162;7.560;2023-06-22T09:16:49;101203.16;;;24.04;47.69
64841;BME280;51307;52.162;7.560;2023-06-22T09:19:15;101207.66;;;24.10;46.99
64841;BME280;51307;52.162;7.560;2023-06-22T09:21:40;101201.38;;;24.10;47.40
64841;BME280;51307;52.162;7.560;2023-06-22T09:24:06;101211.47;;;24.09;47.45
64841;BME280;51307;52.162;7.560;2023-06-22T09:26:31;101208.75;;;24.09;46.89
64841;BME280;51307;52.162;7.560;2023-06-22T09:28:57;101203.84;;;24.11;47.49
64841;BME280;51307;52.162;7.560;2023-06-22T09:31:23;101202.06;;;24.17;47.25
64841;BME280;51307;52.162;7.560;2023-06-22T09:33:53;101195.28;;;24.20;47.58
64841;BME280;51307;52.162;7.560;2023-06-22T09:36:22;101203.81;;;24.23;47.23
64841;BME280;51307;52.162;7.560;2023-06-22T09:38:48;101199.19;;;24.24;47.81
64841;BME280;51307;52.162;7.560;2023-06-22T09:41:14;101198.22;;;24.30;48.12
64841;BME280;51307;52.162;7.560;2023-06-22T09:43:39;101191.69;;;24.31;47.49
64841;BME280;51307;52.162;7.560;2023-06-22T09:46:05;101200.94;;;24.30;47.64
64841;BME280;51307;52.162;7.560;2023-06-22T09:48:32;101189.91;;;24.25;47.55
64841;BME280;51307;52.162;7.560;2023-06-22T09:50:57;101190.50;;;24.27;47.24
64841;BME280;51307;52.162;7.560;2023-06-22T09:53:23;101184.81;;;24.16;47.90
64841;BME280;51307;52.162;7.560;2023-06-22T09:55:59;101184.69;;;24.23;47.44
64841;BME280;51307;52.162;7.560;2023-06-22T09:58:25;101190.50;;;24.27;47.72
64841;BME280;51307;52.162;7.560;2023-06-22T10:00:51;101186.94;;;24.26;47.96
64841;BME280;51307;52.162;7.560;2023-06-22T10:03:16;101186.69;;;24.28;47.68
64841;BME280;51307;52.162;7.560;2023-06-22T10:05:42;101185.81;;;24.39;48.22
64841;BME280;51307;52.162;7.560;2023-06-22T10:08:08;101190.56;;;24.44;48.73
64841;BME280;51307;52.162;7.560;2023-06-22T10:10:35;101182.44;;;24.49;48.32
64841;BME280;51307;52.162;7.560;2023-06-22T10:13:10;101185.56;;;24.53;48.16
64841;BME280;51307;52.162;7.560;2023-06-22T10:15:37;101186.59;;;24.52;47.61
64841;BME280;51307;52.162;7.560;2023-06-22T10:18:02;101182.84;;;24.53;47.86
64841;BME280;51307;52.162;7.560;2023-06-22T10:20:28;101183.66;;;24.53;47.15
64841;BME280;51307;52.162;7.560;2023-06-22T10:22:53;101175.91;;;24.62;47.37
64841;BME280;51307;52.162;7.560;2023-06-22T10:25:19;101175.91;;;24.62;47.29
64841;BME280;51307;52.162;7.560;2023-06-22T10:27:45;101172.75;;;24.70;48.24
64841;BME280;51307;52.162;7.560;2023-06-22T10:30:12;101178.94;;;24.65;47.38
64841;BME280;51307;52.162;7.560;2023-06-22T10:32:42;101173.22;;;24.67;47.63
64841;BME280;51307;52.162;7.560;2023-06-22T10:35:09;101171.91;;;24.70;48.18
64841;BME280;51307;52.162;7.560;2023-06-22T10:37:36;101169.81;;;24.60;47.62
64841;BME280;51307;52.162;7.560;2023-06-22T10:40:02;101161.63;;;24.60;47.42
64841;BME280;51307;52.162;7.560;2023-06-22T10:42:29;101165.41;;;24.59;47.71
64841;BME280;51307;52.162;7.560;2023-06-22T10:44:54;101164.25;;;24.55;47.02
64841;BME280;51307;52.162;7.560;2023-06-22T10:47:20;101165.09;;;24.55;47.61
64841;BME280;51307;52.162;7.560;2023-06-22T10:49:45;101157.97;;;24.54;47.84
64841;BME280;51307;52.162;7.560;2023-06-22T10:52:11;101165.09;;;24.55;47.99
64841;BME280;51307;52.162;7.560;2023-06-22T10:54:37;101165.91;;;24.56;47.48
64841;BME280;51307;52.162;7.560;2023-06-22T10:57:03;101152.84;;;24.58;47.24
64841;BME280;51307;52.162;7.560;2023-06-22T10:59:29;101152.34;;;24.61;47.38
64841;BME280;51307;52.162;7.560;2023-06-22T11:01:58;101153.66;;;24.58;47.87
64841;BME280;51307;52.162;7.560;2023-06-22T11:04:24;101147.44;;;24.63;47.50
64841;BME280;51307;52.162;7.560;2023-06-22T11:06:50;101152.91;;;24.63;47.23
64841;BME280;51307;52.162;7.560;2023-06-22T11:09:16;101146.41;;;24.52;47.74
64841;BME280;51307;52.162;7.560;2023-06-22T11:11:49;101145.72;;;24.57;47.80
64841;BME280;51307;52.162;7.560;2023-06-22T11:14:15;101150.19;;;24.63;48.22
64841;BME280;51307;52.162;7.560;2023-06-22T11:16:41;101144.63;;;24.58;47.98
64841;BME280;51307;52.162;7.560;2023-06-22T11:19:06;101142.22;;;24.61;48.17
64841;BME280;51307;52.162;7.560;2023-06-22T11:21:32;101143.28;;;24.60;47.46
64841;BME280;51307;52.162;7.560;2023-06-22T11:23:59;101138.41;;;24.62;47.85
64841;BME280;51307;52.162;7.560;2023-06-22T11:26:31;101125.56;;;24.63;47.10
64841;BME280;51307;52.162;7.560;2023-06-22T11:28:59;101117.84;;;24.60;47.38
64841;BME280;51307;52.162;7.560;2023-06-22T11:31:25;101109.75;;;24.65;47.26
64841;BME280;51307;52.162;7.560;2023-06-22T11:33:51;101102.09;;;24.67;46.76
64841;BME280;51307;52.162;7.560;2023-06-22T11:36:17;101102.09;;;24.67;47.38
64841;BME280;51307;52.162;7.560;2023-06-22T11:38:43;101100.13;;;24.62;47.65
64841;BME280;51307;52.162;7.560;2023-06-22T11:41:09;101097.78;;;24.71;47.76
64841;BME280;51307;52.162;7.560;2023-06-22T11:43:36;101097.47;;;24.85;47.13
64841;BME280;51307;52.162;7.560;2023-06-22T11:46:03;101100.28;;;24.90;48.04
64841;BME280;51307;52.162;7.560;2023-06-22T11:48:29;101101.63;;;25.04;47.85
64841;BME280;51307;52.162;7.560;2023-06-22T11:50:55;101093.81;;;24.96;46.80
64841;BME280;51307;52.162;7.560;2023-06-22T11:53:25;101090.75;;;25.09;47.01
64841;BME280;51307;52.162;7.560;2023-06-22T11:55:51;101086.34;;;24.91;46.24
64841;BME280;51307;52.162;7.560;2023-06-22T11:58:17;101091.25;;;25.06;46.30
64841;BME280;51307;52.162;7.560;2023-06-22T12:00:43;101089.69;;;25.10;46.62
64841;BME280;51307;52.162;7.560;2023-06-22T12:03:08;101089.72;;;25.15;46.49
64841;BME280;51307;52.162;7.560;2023-06-22T12:05:34;101089.69;;;25.10;46.31
64841;BME280;51307;52.162;7.560;2023-06-22T12:08:00;101094.47;;;25.03;46.25
64841;BME280;51307;52.162;7.560;2023-06-22T12:10:26;101086.84;;;25.05;46.38
64841;BME280;51307;52.162;7.560;2023-06-22T12:12:53;101095.38;;;25.09;46.60
64841;BME280;51307;52.162;7.560;2023-06-22T12:15:19;101100.53;;;25.05;46.48
64841;BME280;51307;52.162;7.560;2023-06-22T12:17:45;101092.00;;;25.02;46.85
64841;BME280;51307;52.162;7.560;2023-06-22T12:20:10;101093.16;;;25.06;46.84
64841;BME280;51307;52.162;7.560;2023-06-22T12:22:36;101092.97;;;24.95;46.94
64841;BME280;51307;52.162;7.560;2023-06-22T12:25:05;101094.56;;;24.91;46.37
64841;BME280;51307;52.162;7.560;2023-06-22T12:27:31;101092.75;;;24.97;46.23
64841;BME280;51307;52.162;7.560;2023-06-22T12:29:56;101098.22;;;24.97;46.19
64841;BME280;51307;52.162;7.560;2023-06-22T12:32:22;101098.44;;;24.95;47.21
64841;BME280;51307;52.162;7.560;2023-06-22T12:34:47;101097.25;;;24.86;47.37
64841;BME280;51307;52.162;7.560;2023-06-22T12:37:13;101093.19;;;24.89;47.01
64841;BME280;51307;52.162;7.560;2023-06-22T12:39:40;101091.00;;;24.91;47.32
64841;BME280;51307;52.162;7.560;2023-06-22T12:42:06;101094.50;;;24.86;48.34
64841;BME280;51307;52.162;7.560;2023-06-22T12:44:37;101088.19;;;24.86;48.10
64841;BME280;51307;52.162;7.560;2023-06-22T12:47:03;101080.72;;;24.81;47.92
64841;BME280;51307;52.162;7.560;2023-06-22T12:49:28;101076.34;;;24.80;48.75
64841;BME280;51307;52.162;7.560;2023-06-22T12:51:54;101079.56;;;24.77;48.01
64841;BME280;51307;52.162;7.560;2023-06-22T12:54:19;101078.31;;;24.68;47.72